sensor_id;sensor_type;location;lat;lon;timestamp;P1;durP1;ratioP1;P2;durP2;ratioP2
74269;SDS011;62754;48.252;11.654;2023-02-16T00:01:33;103.63;;;12.15;;
74269;SDS011;62754;48.252;11.654;2023-02-16T00:04:00;54.47;;;11.05;;
74269;SDS011;62754;48.252;11.654;2023-02-16T00:06:27;47.35;;;8.90;;
74269;SDS011;62754;48.252;11.654;2023-02-16T00:11:22;53.45;;;9.10;;
74269;SDS011;62754;48.252;11.654;2023-02-16T00:13:52;63.63;;;8.82;;
74269;SDS011;62754;48.252;11.654;2023-02-16T00:16:19;30.20;;;8.45;;
74269;SDS011;62754;48.252;11.654;2023-02-16T00:18:46;109.88;;;11.55;;
74269;SDS011;62754;48.252;11.654;2023-02-16T00:21:13;87.68;;;11.40;;
74269;SDS011;62754;48.252;11.654;2023-02-16T00:23:39;56.15;;;9.75;;
74269;SDS011;62754;48.252;11.654;2023-02-16T00:26:05;56.03;;;9.68;;
74269;SDS011;62754;48.252;11.654;2023-02-16T00:28:39;52.97;;;9.45;;
74269;SDS011;62754;48.252;11.654;2023-02-16T00:31:05;61.40;;;10.07;;
74269;SDS011;62754;48.252;11.654;2023-02-16T00:33:30;139.30;;;12.93;;
74269;SDS011;62754;48.252;11.654;2023-02-16T00:35:56;95.32;;;11.07;;
74269;SDS011;62754;48.252;11.654;2023-02-16T00:38:22;53.30;;;8.63;;
74269;SDS011;62754;48.252;11.654;2023-02-16T00:40:48;71.00;;;9.55;;
74269;SDS011;62754;48.252;11.654;2023-02-16T00:43:31;48.78;;;8.73;;
74269;SDS011;62754;48.252;11.654;2023-02-16T00:45:57;61.75;;;9.35;;
74269;SDS011;62754;48.252;11.654;2023-02-16T00:48:23;62.83;;;9.25;;
74269;SDS011;62754;48.252;11.654;2023-02-16T00:50:49;66.75;;;9.13;;
74269;SDS011;62754;48.252;11.654;2023-02-16T00:53:15;51.55;;;8.00;;
74269;SDS011;62754;48.252;11.654;2023-02-16T00:55:41;15.20;;;7.03;;
74269;SDS011;62754;48.252;11.654;2023-02-16T00:58:23;23.67;;;7.30;;
74269;SDS011;62754;48.252;11.654;2023-02-16T01:00:55;23.73;;;7.50;;
74269;SDS011;62754;48.252;11.654;2023-02-16T01:03:26;45.05;;;7.95;;
74269;SDS011;62754;48.252;11.654;2023-02-16T01:05:53;47.17;;;8.68;;
74269;SDS011;62754;48.252;11.654;2023-02-16T01:08:19;23.00;;;6.97;;
74269;SDS011;62754;48.252;11.654;2023-02-16T01:10:46;19.63;;;7.07;;
74269;SDS011;62754;48.252;11.654;2023-02-16T01:13:13;43.25;;;8.90;;
74269;SDS011;62754;48.252;11.654;2023-02-16T01:15:39;13.05;;;7.03;;
74269;SDS011;62754;48.252;11.654;2023-02-16T01:18:06;52.42;;;9.25;;
74269;SDS011;62754;48.252;11.654;2023-02-16T01:20:33;44.90;;;7.63;;
74269;SDS011;62754;48.252;11.654;2023-02-16T01:22:58;34.50;;;8.45;;
74269;SDS011;62754;48.252;11.654;2023-02-16T01:25:24;19.83;;;7.05;;
74269;SDS011;62754;48.252;11.654;2023-02-16T01:27:50;23.13;;;7.57;;
74269;SDS011;62754;48.252;11.654;2023-02-16T01:30:17;43.20;;;7.55;;
74269;SDS011;62754;48.252;11.654;2023-02-16T01:32:45;47.03;;;7.93;;
74269;SDS011;62754;48.252;11.654;2023-02-16T01:35:11;46.85;;;8.80;;
74269;SDS011;62754;48.252;11.654;2023-02-16T01:37:37;32.38;;;8.35;;
74269;SDS011;62754;48.252;11.654;2023-02-16T01:40:03;26.45;;;7.13;;
74269;SDS011;62754;48.252;11.654;2023-02-16T01:42:36;23.95;;;7.35;;
74269;SDS011;62754;48.252;11.654;2023-02-16T01:45:13;18.00;;;7.32;;
74269;SDS011;62754;48.252;11.654;2023-02-16T01:47:49;12.90;;;7.10;;
74269;SDS011;62754;48.252;11.654;2023-02-16T01:50:22;18.55;;;7.60;;
74269;SDS011;62754;48.252;11.654;2023-02-16T01:53:15;22.40;;;7.95;;
74269;SDS011;62754;48.252;11.654;2023-02-16T01:55:48;38.33;;;7.38;;
74269;SDS011;62754;48.252;11.654;2023-02-16T02:03:52;57.33;;;8.55;;
74269;SDS011;62754;48.252;11.654;2023-02-16T02:06:28;26.65;;;7.68;;
74269;SDS011;62754;48.252;11.654;2023-02-16T02:15:07;40.28;;;7.72;;
74269;SDS011;62754;48.252;11.654;2023-02-16T02:17:34;45.42;;;7.15;;
74269;SDS011;62754;48.252;11.654;2023-02-16T02:20:03;77.65;;;8.55;;
74269;SDS011;62754;48.252;11.654;2023-02-16T02:36:37;35.55;;;7.88;;
74269;SDS011;62754;48.252;11.654;2023-02-16T02:41:41;90.13;;;9.18;;
74269;SDS011;62754;48.252;11.654;2023-02-16T02:44:17;44.28;;;7.35;;
74269;SDS011;62754;48.252;11.654;2023-02-16T02:46:46;35.17;;;7.68;;
74269;SDS011;62754;48.252;11.654;2023-02-16T02:49:13;74.10;;;8.40;;
74269;SDS011;62754;48.252;11.654;2023-02-16T02:51:39;72.95;;;8.70;;
74269;SDS011;62754;48.252;11.654;2023-02-16T02:54:12;36.85;;;6.78;;
74269;SDS011;62754;48.252;11.654;2023-02-16T02:56:44;29.40;;;6.78;;
74269;SDS011;62754;48.252;11.654;2023-02-16T02:59:14;47.00;;;7.82;;
74269;SDS011;62754;48.252;11.654;2023-02-16T03:01:40;56.83;;;8.23;;
74269;SDS011;62754;48.252;11.654;2023-02-16T03:04:10;39.05;;;7.90;;
74269;SDS011;62754;48.252;11.654;2023-02-16T03:06:42;85.35;;;9.38;;
74269;SDS011;62754;48.252;11.654;2023-02-16T03:09:12;56.00;;;8.85;;
74269;SDS011;62754;48.252;11.654;2023-02-16T03:11:39;75.32;;;9.32;;
74269;SDS011;62754;48.252;11.654;2023-02-16T03:14:08;35.38;;;8.10;;
74269;SDS011;62754;48.252;11.654;2023-02-16T03:16:38;47.50;;;8.32;;
74269;SDS011;62754;48.252;11.654;2023-02-16T03:19:09;60.13;;;8.52;;
74269;SDS011;62754;48.252;11.654;2023-02-16T03:21:38;92.28;;;9.82;;
74269;SDS011;62754;48.252;11.654;2023-02-16T03:24:07;53.17;;;8.60;;
74269;SDS011;62754;48.252;11.654;2023-02-16T03:26:35;83.95;;;10.77;;
74269;SDS011;62754;48.252;11.654;2023-02-16T03:29:02;68.57;;;9.02;;
74269;SDS011;62754;48.252;11.654;2023-02-16T03:31:31;44.80;;;8.38;;
74269;SDS011;62754;48.252;11.654;2023-02-16T03:33:59;23.80;;;7.13;;
74269;SDS011;62754;48.252;11.654;2023-02-16T03:36:27;41.88;;;7.80;;
74269;SDS011;62754;48.252;11.654;2023-02-16T03:38:54;65.22;;;9.48;;
74269;SDS011;62754;48.252;11.654;2023-02-16T03:41:21;68.80;;;9.43;;
74269;SDS011;62754;48.252;11.654;2023-02-16T03:43:48;54.13;;;9.15;;
74269;SDS011;62754;48.252;11.654;2023-02-16T03:46:14;37.92;;;7.50;;
74269;SDS011;62754;48.252;11.654;2023-02-16T03:48:40;44.63;;;9.30;;
74269;SDS011;62754;48.252;11.654;2023-02-16T03:51:05;50.83;;;8.80;;
74269;SDS011;62754;48.252;11.654;2023-02-16T03:53:31;54.90;;;9.18;;
74269;SDS011;62754;48.252;11.654;2023-02-16T03:55:57;47.75;;;8.02;;
74269;SDS011;62754;48.252;11.654;2023-02-16T03:58:23;41.80;;;9.27;;
74269;SDS011;62754;48.252;11.654;2023-02-16T04:00:49;83.68;;;9.77;;
74269;SDS011;62754;48.252;11.654;2023-02-16T04:03:16;54.33;;;9.40;;
74269;SDS011;62754;48.252;11.654;2023-02-16T04:05:42;54.92;;;9.23;;
74269;SDS011;62754;48.252;11.654;2023-02-16T04:08:08;46.58;;;8.70;;
74269;SDS011;62754;48.252;11.654;2023-02-16T04:10:34;63.53;;;8.85;;
74269;SDS011;62754;48.252;11.654;2023-02-16T04:13:01;59.28;;;9.25;;
74269;SDS011;62754;48.252;11.654;2023-02-16T04:15:28;59.92;;;8.68;;
74269;SDS011;62754;48.252;11.654;2023-02-16T04:17:54;47.25;;;9.40;;
74269;SDS011;62754;48.252;11.654;2023-02-16T04:20:22;32.65;;;7.68;;
74269;SDS011;62754;48.252;11.654;2023-02-16T04:22:52;41.30;;;7.40;;
74269;SDS011;62754;48.252;11.654;2023-02-16T04:25:18;75.88;;;9.25;;
74269;SDS011;62754;48.252;11.654;2023-02-16T04:27:44;50.85;;;8.27;;
74269;SDS011;62754;48.252;11.654;2023-02-16T04:30:14;62.13;;;8.00;;
74269;SDS011;62754;48.252;11.654;2023-02-16T04:32:42;50.63;;;7.80;;
74269;SDS011;62754;48.252;11.654;2023-02-16T04:35:08;28.33;;;6.80;;
74269;SDS011;62754;48.252;11.654;2023-02-16T04:37:34;14.30;;;6.20;;
74269;SDS011;62754;48.252;11.654;2023-02-16T04:40:00;60.35;;;8.45;;
74269;SDS011;62754;48.252;11.654;2023-02-16T04:42:26;35.40;;;7.15;;
74269;SDS011;62754;48.252;11.654;2023-02-16T04:44:52;59.22;;;7.85;;
74269;SDS011;62754;48.252;11.654;2023-02-16T04:47:18;53.03;;;7.28;;
74269;SDS011;62754;48.252;11.654;2023-02-16T04:49:44;27.73;;;6.25;;
74269;SDS011;62754;48.252;11.654;2023-02-16T04:52:10;27.30;;;6.25;;
74269;SDS011;62754;48.252;11.654;2023-02-16T04:54:37;17.38;;;6.43;;
74269;SDS011;62754;48.252;11.654;2023-02-16T04:57:03;77.90;;;9.18;;
74269;SDS011;62754;48.252;11.654;2023-02-16T04:59:29;16.58;;;5.43;;
74269;SDS011;62754;48.252;11.654;2023-02-16T05:01:55;32.13;;;6.07;;
74269;SDS011;62754;48.252;11.654;2023-02-16T05:04:22;26.15;;;6.28;;
74269;SDS011;62754;48.252;11.654;2023-02-16T05:06:48;12.32;;;5.63;;
74269;SDS011;62754;48.252;11.654;2023-02-16T05:09:14;8.82;;;5.28;;
74269;SDS011;62754;48.252;11.654;2023-02-16T05:11:40;18.40;;;5.32;;
74269;SDS011;62754;48.252;11.654;2023-02-16T05:14:05;10.75;;;5.28;;
74269;SDS011;62754;48.252;11.654;2023-02-16T05:16:31;30.90;;;6.50;;
74269;SDS011;62754;48.252;11.654;2023-02-16T05:18:57;10.20;;;5.40;;
74269;SDS011;62754;48.252;11.654;2023-02-16T05:21:25;23.52;;;6.40;;
74269;SDS011;62754;48.252;11.654;2023-02-16T05:23:51;11.93;;;5.13;;
74269;SDS011;62754;48.252;11.654;2023-02-16T05:26:16;13.38;;;5.53;;
74269;SDS011;62754;48.252;11.654;2023-02-16T05:28:42;7.38;;;5.32;;
74269;SDS011;62754;48.252;11.654;2023-02-16T05:31:08;58.97;;;24.42;;
74269;SDS011;62754;48.252;11.654;2023-02-16T05:33:34;17.88;;;8.25;;
74269;SDS011;62754;48.252;11.654;2023-02-16T05:35:59;13.23;;;6.90;;
74269;SDS011;62754;48.252;11.654;2023-02-16T05:38:25;21.90;;;6.32;;
74269;SDS011;62754;48.252;11.654;2023-02-16T05:40:51;17.02;;;7.07;;
74269;SDS011;62754;48.252;11.654;2023-02-16T05:43:17;19.60;;;10.88;;
74269;SDS011;62754;48.252;11.654;2023-02-16T05:45:42;16.75;;;9.25;;
74269;SDS011;62754;48.252;11.654;2023-02-16T05:48:08;21.90;;;7.63;;
74269;SDS011;62754;48.252;11.654;2023-02-16T05:50:34;13.48;;;6.60;;
74269;SDS011;62754;48.252;11.654;2023-02-16T05:53:00;12.50;;;7.00;;
74269;SDS011;62754;48.252;11.654;2023-02-16T05:55:27;32.63;;;6.80;;
74269;SDS011;62754;48.252;11.654;2023-02-16T05:57:53;11.07;;;6.18;;
74269;SDS011;62754;48.252;11.654;2023-02-16T06:00:19;11.38;;;7.22;;
74269;SDS011;62754;48.252;11.654;2023-02-16T06:02:45;10.65;;;6.78;;
74269;SDS011;62754;48.252;11.654;2023-02-16T06:05:10;9.30;;;6.32;;
74269;SDS011;62754;48.252;11.654;2023-02-16T06:07:36;10.48;;;5.93;;
74269;SDS011;62754;48.252;11.654;2023-02-16T06:10:02;16.88;;;6.68;;
74269;SDS011;62754;48.252;11.654;2023-02-16T06:12:29;10.40;;;5.80;;
74269;SDS011;62754;48.252;11.654;2023-02-16T06:14:54;11.13;;;5.60;;
74269;SDS011;62754;48.252;11.654;2023-02-16T06:17:20;12.30;;;6.22;;
74269;SDS011;62754;48.252;11.654;2023-02-16T06:19:48;9.75;;;6.55;;
74269;SDS011;62754;48.252;11.654;2023-02-16T06:22:14;11.45;;;6.57;;
74269;SDS011;62754;48.252;11.654;2023-02-16T06:24:40;15.60;;;6.50;;
74269;SDS011;62754;48.252;11.654;2023-02-16T06:27:06;17.27;;;6.10;;
74269;SDS011;62754;48.252;11.654;2023-02-16T06:29:31;8.18;;;5.47;;
74269;SDS011;62754;48.252;11.654;2023-02-16T06:31:57;10.48;;;6.43;;
74269;SDS011;62754;48.252;11.654;2023-02-16T06:34:23;8.85;;;5.97;;
74269;SDS011;62754;48.252;11.654;2023-02-16T06:36:50;9.10;;;6.07;;
74269;SDS011;62754;48.252;11.654;2023-02-16T06:39:15;10.50;;;6.55;;
74269;SDS011;62754;48.252;11.654;2023-02-16T06:41:41;10.95;;;7.32;;
74269;SDS011;62754;48.252;11.654;2023-02-16T06:44:08;13.68;;;7.03;;
74269;SDS011;62754;48.252;11.654;2023-02-16T06:46:36;11.77;;;6.15;;
74269;SDS011;62754;48.252;11.654;2023-02-16T06:49:01;15.68;;;7.65;;
74269;SDS011;62754;48.252;11.654;2023-02-16T06:51:28;12.50;;;7.03;;
74269;SDS011;62754;48.252;11.654;2023-02-16T06:53:54;12.43;;;7.05;;
74269;SDS011;62754;48.252;11.654;2023-02-16T06:56:20;11.38;;;6.88;;
74269;SDS011;62754;48.252;11.654;2023-02-16T06:58:46;11.25;;;6.72;;
74269;SDS011;62754;48.252;11.654;2023-02-16T07:01:12;10.60;;;7.20;;
74269;SDS011;62754;48.252;11.654;2023-02-16T07:03:38;11.73;;;7.55;;
74269;SDS011;62754;48.252;11.654;2023-02-16T07:06:04;10.68;;;6.50;;
74269;SDS011;62754;48.252;11.654;2023-02-16T07:08:30;17.38;;;7.22;;
74269;SDS011;62754;48.252;11.654;2023-02-16T07:10:56;12.00;;;7.10;;
74269;SDS011;62754;48.252;11.654;2023-02-16T07:13:21;10.88;;;6.68;;
74269;SDS011;62754;48.252;11.654;2023-02-16T07:15:47;9.68;;;6.30;;
74269;SDS011;62754;48.252;11.654;2023-02-16T07:18:14;10.98;;;7.13;;
74269;SDS011;62754;48.252;11.654;2023-02-16T07:20:39;11.80;;;7.13;;
74269;SDS011;62754;48.252;11.654;2023-02-16T07:23:05;9.63;;;5.85;;
74269;SDS011;62754;48.252;11.654;2023-02-16T07:25:31;11.20;;;6.88;;
74269;SDS011;62754;48.252;11.654;2023-02-16T07:27:57;8.43;;;6.55;;
74269;SDS011;62754;48.252;11.654;2023-02-16T07:30:22;14.55;;;8.85;;
74269;SDS011;62754;48.252;11.654;2023-02-16T07:32:48;17.05;;;10.30;;
74269;SDS011;62754;48.252;11.654;2023-02-16T07:35:14;15.48;;;9.90;;
74269;SDS011;62754;48.252;11.654;2023-02-16T07:37:40;13.93;;;8.30;;
74269;SDS011;62754;48.252;11.654;2023-02-16T07:40:06;10.63;;;7.22;;
74269;SDS011;62754;48.252;11.654;2023-02-16T07:42:32;10.77;;;7.13;;
74269;SDS011;62754;48.252;11.654;2023-02-16T07:44:58;8.95;;;5.93;;
74269;SDS011;62754;48.252;11.654;2023-02-16T07:47:24;8.35;;;5.75;;
74269;SDS011;62754;48.252;11.654;2023-02-16T07:49:50;9.13;;;6.38;;
74269;SDS011;62754;48.252;11.654;2023-02-16T07:52:16;8.48;;;5.68;;
74269;SDS011;62754;48.252;11.654;2023-02-16T07:54:42;7.30;;;5.65;;
74269;SDS011;62754;48.252;11.654;2023-02-16T07:57:08;8.93;;;6.15;;
74269;SDS011;62754;48.252;11.654;2023-02-16T07:59:34;8.20;;;6.28;;
74269;SDS011;62754;48.252;11.654;2023-02-16T08:02:00;8.25;;;5.45;;
74269;SDS011;62754;48.252;11.654;2023-02-16T08:04:25;9.38;;;6.43;;
74269;SDS011;62754;48.252;11.654;2023-02-16T08:06:51;10.35;;;7.05;;
74269;SDS011;62754;48.252;11.654;2023-02-16T08:09:17;11.73;;;6.70;;
74269;SDS011;62754;48.252;11.654;2023-02-16T08:11:43;9.77;;;6.90;;
74269;SDS011;62754;48.252;11.654;2023-02-16T08:14:09;11.52;;;6.63;;
74269;SDS011;62754;48.252;11.654;2023-02-16T08:16:35;9.45;;;6.65;;
74269;SDS011;62754;48.252;11.654;2023-02-16T08:19:01;14.93;;;7.25;;
74269;SDS011;62754;48.252;11.654;2023-02-16T08:21:28;12.15;;;8.07;;
74269;SDS011;62754;48.252;11.654;2023-02-16T08:23:57;11.82;;;7.75;;
74269;SDS011;62754;48.252;11.654;2023-02-16T08:26:29;13.45;;;8.27;;
74269;SDS011;62754;48.252;11.654;2023-02-16T08:28:58;10.35;;;7.30;;
74269;SDS011;62754;48.252;11.654;2023-02-16T08:31:26;14.65;;;7.43;;
74269;SDS011;62754;48.252;11.654;2023-02-16T08:33:53;13.70;;;8.25;;
74269;SDS011;62754;48.252;11.654;2023-02-16T08:36:21;10.98;;;8.40;;
74269;SDS011;62754;48.252;11.654;2023-02-16T08:38:48;10.73;;;7.78;;
74269;SDS011;62754;48.252;11.654;2023-02-16T08:41:14;11.63;;;7.32;;
74269;SDS011;62754;48.252;11.654;2023-02-16T08:43:40;12.13;;;7.43;;
74269;SDS011;62754;48.252;11.654;2023-02-16T08:46:06;10.85;;;7.43;;
74269;SDS011;62754;48.252;11.654;2023-02-16T08:48:31;12.30;;;7.18;;
74269;SDS011;62754;48.252;11.654;2023-02-16T08:50:57;9.32;;;6.63;;
74269;SDS011;62754;48.252;11.654;2023-02-16T08:53:23;8.88;;;6.70;;
74269;SDS011;62754;48.252;11.654;2023-02-16T08:55:55;9.43;;;7.25;;
74269;SDS011;62754;48.252;11.654;2023-02-16T08:58:22;9.30;;;7.20;;
74269;SDS011;62754;48.252;11.654;2023-02-16T09:00:48;11.80;;;8.13;;
74269;SDS011;62754;48.252;11.654;2023-02-16T09:03:17;10.95;;;7.90;;
74269;SDS011;62754;48.252;11.654;2023-02-16T09:05:44;16.17;;;7.53;;
74269;SDS011;62754;48.252;11.654;2023-02-16T09:08:10;9.77;;;7.45;;
74269;SDS011;62754;48.252;11.654;2023-02-16T09:10:36;10.07;;;7.28;;
74269;SDS011;62754;48.252;11.654;2023-02-16T09:13:03;10.75;;;7.82;;
74269;SDS011;62754;48.252;11.654;2023-02-16T09:15:29;11.63;;;7.65;;
74269;SDS011;62754;48.252;11.654;2023-02-16T09:17:56;9.15;;;7.07;;
74269;SDS011;62754;48.252;11.654;2023-02-16T09:20:21;14.82;;;8.45;;
74269;SDS011;62754;48.252;11.654;2023-02-16T09:22:47;11.68;;;7.93;;
74269;SDS011;62754;48.252;11.654;2023-02-16T09:25:13;12.77;;;7.50;;
74269;SDS011;62754;48.252;11.654;2023-02-16T09:27:39;12.77;;;8.15;;
74269;SDS011;62754;48.252;11.654;2023-02-16T09:30:05;11.70;;;7.88;;
74269;SDS011;62754;48.252;11.654;2023-02-16T09:32:31;15.57;;;8.57;;
74269;SDS011;62754;48.252;11.654;2023-02-16T09:34:57;12.93;;;8.80;;
74269;SDS011;62754;48.252;11.654;2023-02-16T09:37:22;12.90;;;8.15;;
74269;SDS011;62754;48.252;11.654;2023-02-16T09:39:48;15.63;;;8.02;;
74269;SDS011;62754;48.252;11.654;2023-02-16T09:45:05;12.32;;;8.38;;
74269;SDS011;62754;48.252;11.654;2023-02-16T09:47:35;12.50;;;7.65;;
74269;SDS011;62754;48.252;11.654;2023-02-16T09:50:12;12.20;;;8.00;;
74269;SDS011;62754;48.252;11.654;2023-02-16T09:52:57;13.30;;;7.78;;
74269;SDS011;62754;48.252;11.654;2023-02-16T09:55:50;12.27;;;7.50;;
74269;SDS011;62754;48.252;11.654;2023-02-16T09:58:21;12.57;;;7.63;;
74269;SDS011;62754;48.252;11.654;2023-02-16T10:00:53;13.45;;;7.45;;
74269;SDS011;62754;48.252;11.654;2023-02-16T10:03:26;17.73;;;7.45;;
74269;SDS011;62754;48.252;11.654;2023-02-16T10:09:06;9.80;;;6.97;;
74269;SDS011;62754;48.252;11.654;2023-02-16T10:11:44;11.25;;;7.00;;
74269;SDS011;62754;48.252;11.654;2023-02-16T10:14:16;13.30;;;6.63;;
74269;SDS011;62754;48.252;11.654;2023-02-16T10:17:10;12.00;;;6.43;;
74269;SDS011;62754;48.252;11.654;2023-02-16T10:19:42;13.85;;;7.78;;
74269;SDS011;62754;48.252;11.654;2023-02-16T10:22:42;14.60;;;7.47;;
74269;SDS011;62754;48.252;11.654;2023-02-16T10:28:01;13.60;;;7.55;;
74269;SDS011;62754;48.252;11.654;2023-02-16T10:30:39;12.60;;;7.70;;
74269;SDS011;62754;48.252;11.654;2023-02-16T10:33:16;12.70;;;8.00;;
74269;SDS011;62754;48.252;11.654;2023-02-16T10:35:55;14.57;;;8.73;;
74269;SDS011;62754;48.252;11.654;2023-02-16T11:42:37;10.65;;;5.97;;
74269;SDS011;62754;48.252;11.654;2023-02-16T11:45:06;10.10;;;5.57;;
74269;SDS011;62754;48.252;11.654;2023-02-16T11:47:33;9.93;;;5.80;;
74269;SDS011;62754;48.252;11.654;2023-02-16T11:52:57;11.02;;;6.95;;
74269;SDS011;62754;48.252;11.654;2023-02-16T11:55:40;13.88;;;6.15;;
74269;SDS011;62754;48.252;11.654;2023-02-16T12:00:38;11.65;;;5.65;;
74269;SDS011;62754;48.252;11.654;2023-02-16T12:08:49;12.23;;;6.60;;
74269;SDS011;62754;48.252;11.654;2023-02-16T12:14:11;15.20;;;6.28;;
74269;SDS011;62754;48.252;11.654;2023-02-16T12:19:44;10.40;;;5.25;;
74269;SDS011;62754;48.252;11.654;2023-02-16T12:27:41;9.02;;;5.45;;
74269;SDS011;62754;48.252;11.654;2023-02-16T12:30:31;10.88;;;4.97;;
74269;SDS011;62754;48.252;11.654;2023-02-16T12:33:00;9.02;;;4.85;;
74269;SDS011;62754;48.252;11.654;2023-02-16T12:40:56;7.03;;;5.07;;
74269;SDS011;62754;48.252;11.654;2023-02-16T12:46:03;11.25;;;5.15;;
74269;SDS011;62754;48.252;11.654;2023-02-16T12:51:21;7.95;;;4.20;;
74269;SDS011;62754;48.252;11.654;2023-02-16T12:53:55;11.75;;;4.78;;
74269;SDS011;62754;48.252;11.654;2023-02-16T12:56:27;8.10;;;5.05;;
74269;SDS011;62754;48.252;11.654;2023-02-16T12:59:04;11.18;;;5.55;;
74269;SDS011;62754;48.252;11.654;2023-02-16T13:01:39;6.65;;;4.18;;
74269;SDS011;62754;48.252;11.654;2023-02-16T13:07:22;9.65;;;4.65;;
74269;SDS011;62754;48.252;11.654;2023-02-16T13:12:38;7.88;;;4.18;;
74269;SDS011;62754;48.252;11.654;2023-02-16T13:15:12;8.73;;;4.82;;
74269;SDS011;62754;48.252;11.654;2023-02-16T13:17:40;7.53;;;4.50;;
74269;SDS011;62754;48.252;11.654;2023-02-16T13:20:14;8.45;;;4.32;;
74269;SDS011;62754;48.252;11.654;2023-02-16T13:28:28;5.78;;;3.90;;
74269;SDS011;62754;48.252;11.654;2023-02-16T13:39:40;6.43;;;4.13;;
74269;SDS011;62754;48.252;11.654;2023-02-16T13:44:59;6.97;;;3.97;;
74269;SDS011;62754;48.252;11.654;2023-02-16T13:47:30;11.40;;;6.10;;
74269;SDS011;62754;48.252;11.654;2023-02-16T13:50:02;11.50;;;4.85;;
74269;SDS011;62754;48.252;11.654;2023-02-16T13:52:32;15.32;;;4.75;;
74269;SDS011;62754;48.252;11.654;2023-02-16T13:55:01;10.25;;;5.00;;
74269;SDS011;62754;48.252;11.654;2023-02-16T14:06:32;8.68;;;4.05;;
74269;SDS011;62754;48.252;11.654;2023-02-16T14:33:05;8.68;;;4.13;;
74269;SDS011;62754;48.252;11.654;2023-02-16T14:35:40;8.93;;;4.60;;
74269;SDS011;62754;48.252;11.654;2023-02-16T14:38:20;6.72;;;3.65;;
74269;SDS011;62754;48.252;11.654;2023-02-16T14:41:02;8.57;;;4.15;;
74269;SDS011;62754;48.252;11.654;2023-02-16T14:52:09;10.63;;;4.82;;
74269;SDS011;62754;48.252;11.654;2023-02-16T14:58:21;12.68;;;4.25;;
74269;SDS011;62754;48.252;11.654;2023-02-16T15:01:15;8.43;;;4.30;;
74269;SDS011;62754;48.252;11.654;2023-02-16T15:03:46;7.05;;;4.00;;
74269;SDS011;62754;48.252;11.654;2023-02-16T15:06:19;10.07;;;3.90;;
74269;SDS011;62754;48.252;11.654;2023-02-16T15:08:51;9.30;;;3.90;;
74269;SDS011;62754;48.252;11.654;2023-02-16T15:11:20;7.55;;;4.03;;
74269;SDS011;62754;48.252;11.654;2023-02-16T15:13:52;11.32;;;4.30;;
74269;SDS011;62754;48.252;11.654;2023-02-16T15:16:19;9.90;;;3.95;;
74269;SDS011;62754;48.252;11.654;2023-02-16T15:18:47;6.18;;;3.40;;
74269;SDS011;62754;48.252;11.654;2023-02-16T15:21:16;8.40;;;3.33;;
74269;SDS011;62754;48.252;11.654;2023-02-16T15:23:48;9.13;;;3.88;;
74269;SDS011;62754;48.252;11.654;2023-02-16T15:26:20;7.43;;;3.17;;
74269;SDS011;62754;48.252;11.654;2023-02-16T15:28:53;14.35;;;3.67;;
74269;SDS011;62754;48.252;11.654;2023-02-16T15:31:21;8.40;;;3.45;;
74269;SDS011;62754;48.252;11.654;2023-02-16T15:34:03;16.42;;;3.92;;
74269;SDS011;62754;48.252;11.654;2023-02-16T15:36:38;13.32;;;3.95;;
74269;SDS011;62754;48.252;11.654;2023-02-16T15:39:06;8.10;;;3.90;;
74269;SDS011;62754;48.252;11.654;2023-02-16T15:41:53;10.23;;;3.67;;
74269;SDS011;62754;48.252;11.654;2023-02-16T15:44:35;9.23;;;4.32;;
74269;SDS011;62754;48.252;11.654;2023-02-16T15:47:34;8.75;;;4.05;;
74269;SDS011;62754;48.252;11.654;2023-02-16T15:49:53;8.52;;;3.95;;
74269;SDS011;62754;48.252;11.654;2023-02-16T15:54:47;7.22;;;3.13;;
74269;SDS011;62754;48.252;11.654;2023-02-16T15:57:28;10.85;;;4.10;;
74269;SDS011;62754;48.252;11.654;2023-02-16T15:59:59;8.05;;;3.53;;
74269;SDS011;62754;48.252;11.654;2023-02-16T16:02:35;7.70;;;3.67;;
74269;SDS011;62754;48.252;11.654;2023-02-16T16:05:05;7.60;;;3.80;;
74269;SDS011;62754;48.252;11.654;2023-02-16T16:07:33;9.95;;;3.55;;
74269;SDS011;62754;48.252;11.654;2023-02-16T16:10:06;7.07;;;3.53;;
74269;SDS011;62754;48.252;11.654;2023-02-16T16:12:55;13.43;;;7.03;;
74269;SDS011;62754;48.252;11.654;2023-02-16T16:15:25;14.63;;;5.07;;
74269;SDS011;62754;48.252;11.654;2023-02-16T16:17:53;7.63;;;3.40;;
74269;SDS011;62754;48.252;11.654;2023-02-16T16:22:57;8.60;;;4.35;;
74269;SDS011;62754;48.252;11.654;2023-02-16T16:28:00;10.70;;;3.47;;
74269;SDS011;62754;48.252;11.654;2023-02-16T16:30:29;13.50;;;4.13;;
74269;SDS011;62754;48.252;11.654;2023-02-16T16:33:00;9.02;;;3.00;;
74269;SDS011;62754;48.252;11.654;2023-02-16T16:38:05;8.93;;;4.15;;
74269;SDS011;62754;48.252;11.654;2023-02-16T16:40:42;10.00;;;3.80;;
74269;SDS011;62754;48.252;11.654;2023-02-16T16:45:46;10.35;;;3.80;;
74269;SDS011;62754;48.252;11.654;2023-02-16T16:48:16;8.75;;;4.07;;
74269;SDS011;62754;48.252;11.654;2023-02-16T16:50:44;11.52;;;4.22;;
74269;SDS011;62754;48.252;11.654;2023-02-16T16:55:55;8.75;;;4.30;;
74269;SDS011;62754;48.252;11.654;2023-02-16T16:58:22;7.30;;;3.42;;
74269;SDS011;62754;48.252;11.654;2023-02-16T17:00:48;11.18;;;4.38;;
74269;SDS011;62754;48.252;11.654;2023-02-16T17:03:15;16.45;;;3.80;;
74269;SDS011;62754;48.252;11.654;2023-02-16T17:05:42;10.07;;;3.47;;
74269;SDS011;62754;48.252;11.654;2023-02-16T17:08:09;9.77;;;4.07;;
74269;SDS011;62754;48.252;11.654;2023-02-16T17:10:36;8.88;;;4.18;;
74269;SDS011;62754;48.252;11.654;2023-02-16T17:13:04;10.18;;;4.53;;
74269;SDS011;62754;48.252;11.654;2023-02-16T17:18:03;12.85;;;4.47;;
74269;SDS011;62754;48.252;11.654;2023-02-16T17:20:30;13.98;;;4.88;;
74269;SDS011;62754;48.252;11.654;2023-02-16T17:22:56;9.18;;;4.05;;
74269;SDS011;62754;48.252;11.654;2023-02-16T17:25:21;13.00;;;4.10;;
74269;SDS011;62754;48.252;11.654;2023-02-16T17:27:47;12.88;;;5.35;;
74269;SDS011;62754;48.252;11.654;2023-02-16T17:30:13;10.38;;;4.93;;
74269;SDS011;62754;48.252;11.654;2023-02-16T17:32:39;11.70;;;4.65;;
74269;SDS011;62754;48.252;11.654;2023-02-16T17:35:05;10.98;;;4.43;;
74269;SDS011;62754;48.252;11.654;2023-02-16T17:37:31;10.57;;;4.20;;
74269;SDS011;62754;48.252;11.654;2023-02-16T17:39:57;10.77;;;5.40;;
74269;SDS011;62754;48.252;11.654;2023-02-16T17:42:23;11.63;;;4.68;;
74269;SDS011;62754;48.252;11.654;2023-02-16T17:44:49;11.00;;;4.63;;
74269;SDS011;62754;48.252;11.654;2023-02-16T17:47:15;14.27;;;5.35;;
74269;SDS011;62754;48.252;11.654;2023-02-16T17:49:41;8.23;;;4.55;;
74269;SDS011;62754;48.252;11.654;2023-02-16T17:52:10;9.55;;;4.30;;
74269;SDS011;62754;48.252;11.654;2023-02-16T17:54:36;14.20;;;4.63;;
74269;SDS011;62754;48.252;11.654;2023-02-16T17:57:02;11.10;;;5.32;;
74269;SDS011;62754;48.252;11.654;2023-02-16T17:59:28;12.30;;;4.85;;
74269;SDS011;62754;48.252;11.654;2023-02-16T18:01:54;10.82;;;6.03;;
74269;SDS011;62754;48.252;11.654;2023-02-16T18:04:20;12.77;;;5.75;;
74269;SDS011;62754;48.252;11.654;2023-02-16T18:06:45;11.45;;;5.78;;
74269;SDS011;62754;48.252;11.654;2023-02-16T18:09:13;11.38;;;6.18;;
74269;SDS011;62754;48.252;11.654;2023-02-16T18:11:40;13.55;;;6.78;;
74269;SDS011;62754;48.252;11.654;2023-02-16T18:14:06;13.60;;;6.47;;
74269;SDS011;62754;48.252;11.654;2023-02-16T18:16:32;12.13;;;5.80;;